Time;durP1;ratioP1;P1;durP2;ratioP2;P2;SDS_P1;SDS_P2;PMS_P1;PMS_P2;Temp;Humidity;BMP_temperature;BMP_pressure;BME280_temperature;BME280_humidity;BME280_pressure;Samples;Min_cycle;Max_cycle;Signal;HPM_P1;HPM_P2
2022/10/13 00:02:18;;;;;;;17.63;7.80;;;;;;;;;;5136371;27;20094;-74
2022/10/13 00:05:03;;;;;;;17.75;8.35;;;;;;;;;;5136721;27;20011;-73
2022/10/13 00:07:49;;;;;;;15.23;8.38;;;;;;;;;;5121294;27;20023;-74
2022/10/13 00:10:35;;;;;;;13.93;8.63;;;;;;;;;;5136283;27;20069;-74
2022/10/13 00:13:21;;;;;;;26.98;9.35;;;;;;;;;;5134666;27;20582;-74
2022/10/13 00:16:07;;;;;;;17.20;9.45;;;;;;;;;;5135997;27;20031;-74
2022/10/13 00:18:53;;;;;;;15.40;9.48;;;;;;;;;;5121291;27;20027;-72
2022/10/13 00:21:38;;;;;;;17.73;9.32;;;;;;;;;;5134112;27;20096;-73
2022/10/13 00:24:24;;;;;;;16.42;9.15;;;;;;;;;;5134497;27;20015;-74
2022/10/13 00:27:09;;;;;;;16.15;9.63;;;;;;;;;;5135495;27;20019;-74
2022/10/13 00:29:55;;;;;;;20.55;9.05;;;;;;;;;;5135710;27;20095;-74
2022/10/13 00:32:41;;;;;;;15.85;9.15;;;;;;;;;;5135251;27;20366;-73
2022/10/13 00:35:27;;;;;;;16.05;8.70;;;;;;;;;;5135203;27;20027;-72
2022/10/13 00:38:13;;;;;;;17.95;8.50;;;;;;;;;;5135913;27;20050;-73
2022/10/13 00:40:58;;;;;;;13.65;8.88;;;;;;;;;;5135175;27;20098;-73
2022/10/13 00:43:48;;;;;;;17.73;8.52;;;;;;;;;;5135102;27;20348;-73
2022/10/13 00:46:35;;;;;;;13.32;8.30;;;;;;;;;;5134803;27;20098;-74
2022/10/13 00:49:21;;;;;;;15.40;7.40;;;;;;;;;;5151520;27;20015;-74
2022/10/13 00:52:07;;;;;;;15.27;7.97;;;;;;;;;;5134551;27;20412;-73
2022/10/13 00:54:53;;;;;;;15.32;8.25;;;;;;;;;;5133586;27;20458;-73
2022/10/13 00:57:40;;;;;;;16.20;8.20;;;;;;;;;;5134174;27;20023;-74
2022/10/13 01:00:26;;;;;;;11.63;7.47;;;;;;;;;;5120327;27;20087;-73
2022/10/13 01:03:12;;;;;;;18.80;8.13;;;;;;;;;;5134227;27;20018;-73
2022/10/13 01:05:59;;;;;;;10.98;7.53;;;;;;;;;;5134707;27;20023;-73
2022/10/13 01:08:44;;;;;;;11.18;7.53;;;;;;;;;;5133815;27;20083;-73
2022/10/13 01:11:48;;;;;;;14.15;8.02;;;;;;;;;;5133674;27;20088;-73
2022/10/13 01:14:39;;;;;;;13.00;8.15;;;;;;;;;;5134920;27;20024;-73
2022/10/13 01:17:52;;;;;;;11.63;7.57;;;;;;;;;;5119785;27;20438;-73
2022/10/13 01:20:40;;;;;;;39.33;8.75;;;;;;;;;;5134718;27;20427;-73
2022/10/13 01:23:26;;;;;;;25.20;8.93;;;;;;;;;;5134550;27;20019;-74
2022/10/13 01:26:11;;;;;;;25.52;9.02;;;;;;;;;;5134664;27;20030;-73
2022/10/13 01:29:06;;;;;;;22.05;8.40;;;;;;;;;;5135049;27;20338;-73
2022/10/13 01:31:58;;;;;;;17.88;8.70;;;;;;;;;;5119688;27;20088;-73
2022/10/13 01:35:02;;;;;;;13.18;8.10;;;;;;;;;;5134382;28;20034;-73
2022/10/13 01:37:51;;;;;;;14.80;8.25;;;;;;;;;;5119640;28;20020;-72
2022/10/13 01:40:43;;;;;;;13.48;7.75;;;;;;;;;;5134877;28;20102;-74
2022/10/13 01:43:36;;;;;;;16.27;7.95;;;;;;;;;;5134169;28;20020;-73
2022/10/13 01:46:23;;;;;;;15.10;8.32;;;;;;;;;;5133251;28;20015;-73
2022/10/13 01:49:10;;;;;;;12.98;8.65;;;;;;;;;;5119690;28;20031;-74
2022/10/13 01:51:59;;;;;;;16.60;8.88;;;;;;;;;;5134178;28;20027;-73
2022/10/13 01:54:49;;;;;;;18.60;8.60;;;;;;;;;;5119191;28;20536;-73
2022/10/13 01:57:36;;;;;;;17.52;9.23;;;;;;;;;;5120288;27;20110;-73
2022/10/13 02:00:22;;;;;;;15.57;8.60;;;;;;;;;;5137122;27;20023;-73
2022/10/13 02:03:22;;;;;;;16.63;8.25;;;;;;;;;;5138263;27;20023;-73
2022/10/13 02:06:15;;;;;;;18.42;9.18;;;;;;;;;;5137064;27;20019;-74
2022/10/13 02:09:02;;;;;;;12.55;8.32;;;;;;;;;;5138052;27;20023;-74
2022/10/13 02:11:52;;;;;;;14.68;9.30;;;;;;;;;;5123379;27;20336;-74
2022/10/13 02:14:41;;;;;;;14.73;9.13;;;;;;;;;;5123194;27;20034;-74
2022/10/13 02:17:27;;;;;;;17.02;9.43;;;;;;;;;;5136509;27;20370;-74
2022/10/13 02:20:14;;;;;;;16.52;9.27;;;;;;;;;;5138178;27;20355;-73
2022/10/13 02:23:03;;;;;;;18.25;9.90;;;;;;;;;;5136752;27;20465;-73
2022/10/13 02:25:50;;;;;;;14.63;9.50;;;;;;;;;;5137802;27;20047;-73
2022/10/13 02:28:36;;;;;;;17.95;9.98;;;;;;;;;;5136584;27;20038;-74
2022/10/13 02:31:22;;;;;;;15.20;10.02;;;;;;;;;;5122906;27;20118;-74
2022/10/13 02:34:08;;;;;;;20.45;10.15;;;;;;;;;;5137085;27;20026;-73
2022/10/13 02:36:53;;;;;;;20.95;9.98;;;;;;;;;;5138068;27;20023;-73
2022/10/13 02:39:39;;;;;;;19.08;10.30;;;;;;;;;;5136804;27;20458;-74
2022/10/13 02:42:24;;;;;;;19.88;8.98;;;;;;;;;;5137422;27;20054;-73
2022/10/13 02:45:10;;;;;;;11.80;8.27;;;;;;;;;;5136815;27;20026;-73
2022/10/13 02:47:56;;;;;;;17.05;8.90;;;;;;;;;;5138016;27;20076;-74
2022/10/13 02:50:42;;;;;;;13.23;8.80;;;;;;;;;;5137680;27;20050;-74
2022/10/13 02:53:28;;;;;;;15.63;8.57;;;;;;;;;;5137775;27;20050;-73
2022/10/13 02:56:13;;;;;;;13.80;8.63;;;;;;;;;;5137177;27;20043;-73
2022/10/13 02:58:59;;;;;;;14.95;8.32;;;;;;;;;;5137129;27;20031;-74
2022/10/13 03:01:45;;;;;;;18.13;8.85;;;;;;;;;;5137856;27;20359;-74
2022/10/13 03:04:30;;;;;;;22.38;8.73;;;;;;;;;;5135870;27;20501;-73
2022/10/13 03:07:16;;;;;;;20.60;9.40;;;;;;;;;;5135858;27;20114;-73
2022/10/13 03:10:02;;;;;;;15.50;8.88;;;;;;;;;;5135621;27;20397;-74
2022/10/13 03:12:48;;;;;;;16.73;8.60;;;;;;;;;;5121786;27;20054;-73
2022/10/13 03:15:33;;;;;;;27.38;10.80;;;;;;;;;;5136002;27;20038;-74
2022/10/13 03:18:19;;;;;;;29.55;11.75;;;;;;;;;;5136327;27;20034;-73
2022/10/13 03:21:05;;;;;;;29.95;11.10;;;;;;;;;;5136390;27;20042;-74
2022/10/13 03:23:51;;;;;;;28.60;11.02;;;;;;;;;;5135525;27;20015;-73
2022/10/13 03:26:36;;;;;;;24.00;10.38;;;;;;;;;;5136285;27;20439;-74
2022/10/13 03:29:22;;;;;;;23.50;11.50;;;;;;;;;;5136283;27;20351;-74
2022/10/13 03:32:08;;;;;;;17.75;11.43;;;;;;;;;;5135600;27;20035;-73
2022/10/13 03:34:53;;;;;;;20.95;12.00;;;;;;;;;;5136249;27;20026;-73
2022/10/13 03:37:39;;;;;;;19.58;12.63;;;;;;;;;;5136009;27;20016;-73
2022/10/13 03:40:24;;;;;;;22.13;13.55;;;;;;;;;;5136783;27;20102;-73
2022/10/13 03:43:10;;;;;;;19.08;13.07;;;;;;;;;;5135792;27;20014;-73
2022/10/13 03:45:56;;;;;;;21.35;13.10;;;;;;;;;;5135868;27;20390;-73
2022/10/13 03:48:42;;;;;;;21.98;13.35;;;;;;;;;;5135667;27;20363;-73
2022/10/13 03:51:28;;;;;;;22.33;13.32;;;;;;;;;;5136231;27;20034;-73
2022/10/13 03:54:13;;;;;;;21.05;13.57;;;;;;;;;;5135988;27;20115;-73
2022/10/13 03:56:59;;;;;;;22.48;14.05;;;;;;;;;;5135092;27;20042;-73
2022/10/13 03:59:44;;;;;;;26.80;14.73;;;;;;;;;;5135897;27;20098;-73
2022/10/13 04:02:30;;;;;;;30.73;15.43;;;;;;;;;;5135836;27;20023;-72
2022/10/13 04:05:16;;;;;;;30.70;14.60;;;;;;;;;;5136072;27;20011;-71
2022/10/13 04:08:01;;;;;;;26.30;14.68;;;;;;;;;;5120879;27;20464;-73
2022/10/13 04:10:47;;;;;;;37.75;13.98;;;;;;;;;;5134881;27;20495;-73
2022/10/13 04:13:33;;;;;;;20.70;12.32;;;;;;;;;;5135494;27;20455;-73
2022/10/13 04:16:20;;;;;;;27.13;13.77;;;;;;;;;;5140817;27;20107;-73
2022/10/13 04:19:05;;;;;;;24.85;13.35;;;;;;;;;;5141364;27;20023;-73
2022/10/13 04:21:51;;;;;;;26.52;13.52;;;;;;;;;;5137465;27;20042;-76
2022/10/13 04:24:36;;;;;;;23.25;12.80;;;;;;;;;;5135752;27;20023;-74
2022/10/13 04:27:22;;;;;;;21.77;12.60;;;;;;;;;;5135613;27;20038;-74
2022/10/13 04:30:08;;;;;;;23.73;12.07;;;;;;;;;;5134266;27;20453;-74
2022/10/13 04:32:54;;;;;;;18.50;11.10;;;;;;;;;;5120442;27;20051;-73
2022/10/13 04:35:40;;;;;;;24.63;11.40;;;;;;;;;;5134988;27;20038;-73
2022/10/13 04:38:27;;;;;;;21.88;11.85;;;;;;;;;;5135305;27;20083;-74
2022/10/13 04:41:13;;;;;;;23.67;10.98;;;;;;;;;;5128677;27;20019;-73
2022/10/13 04:44:01;;;;;;;24.92;9.85;;;;;;;;;;5134937;27;20099;-74
2022/10/13 04:46:46;;;;;;;18.95;9.15;;;;;;;;;;5131451;27;20007;-73
2022/10/13 04:49:32;;;;;;;20.05;9.20;;;;;;;;;;5135279;27;20043;-73
2022/10/13 04:52:17;;;;;;;19.10;8.43;;;;;;;;;;5120439;27;20019;-75
2022/10/13 04:55:03;;;;;;;18.67;8.00;;;;;;;;;;5139448;27;20154;-75
2022/10/13 04:57:49;;;;;;;16.83;7.85;;;;;;;;;;5133924;27;20015;-73
2022/10/13 05:00:35;;;;;;;23.20;8.38;;;;;;;;;;5134966;27;20483;-73
2022/10/13 05:03:21;;;;;;;19.98;8.38;;;;;;;;;;5120081;27;20076;-74
2022/10/13 05:06:18;;;;;;;15.95;8.68;;;;;;;;;;5119684;27;20027;-74
2022/10/13 05:09:03;;;;;;;17.83;9.70;;;;;;;;;;5135378;27;20015;-74
2022/10/13 05:11:49;;;;;;;19.27;9.32;;;;;;;;;;5133902;27;20118;-74
2022/10/13 05:14:34;;;;;;;14.32;8.07;;;;;;;;;;5134115;27;20034;-74
2022/10/13 05:17:20;;;;;;;20.63;8.63;;;;;;;;;;5134659;27;20051;-73
2022/10/13 05:20:06;;;;;;;18.10;10.07;;;;;;;;;;5134226;27;20144;-74
2022/10/13 05:22:51;;;;;;;21.10;9.90;;;;;;;;;;5134140;27;20015;-74
2022/10/13 05:25:37;;;;;;;16.95;9.15;;;;;;;;;;5134471;27;20033;-74
2022/10/13 05:28:23;;;;;;;19.58;9.52;;;;;;;;;;5134512;27;20023;-74
2022/10/13 05:31:11;;;;;;;25.73;9.70;;;;;;;;;;5134673;27;20019;-74
2022/10/13 05:33:57;;;;;;;25.88;10.27;;;;;;;;;;5134058;27;20011;-74
2022/10/13 05:36:42;;;;;;;24.48;10.85;;;;;;;;;;5134676;28;20346;-73
2022/10/13 05:39:28;;;;;;;26.60;10.88;;;;;;;;;;5133603;28;20068;-74
2022/10/13 05:42:14;;;;;;;24.98;11.05;;;;;;;;;;5133586;28;20008;-74
2022/10/13 05:44:59;;;;;;;24.58;11.32;;;;;;;;;;5133615;28;20015;-74
2022/10/13 05:47:45;;;;;;;26.65;12.48;;;;;;;;;;5133923;28;20026;-73
2022/10/13 05:50:30;;;;;;;24.60;12.20;;;;;;;;;;5118877;28;20023;-74
2022/10/13 05:53:16;;;;;;;25.83;12.30;;;;;;;;;;5119344;28;20027;-74
2022/10/13 05:56:05;;;;;;;23.58;13.07;;;;;;;;;;5133962;28;20375;-74
2022/10/13 05:58:54;;;;;;;31.40;12.80;;;;;;;;;;5119558;28;20023;-74
2022/10/13 06:01:41;;;;;;;33.10;14.55;;;;;;;;;;5133564;28;20019;-74
2022/10/13 06:04:32;;;;;;;27.52;13.27;;;;;;;;;;5133753;28;20359;-73
2022/10/13 06:07:17;;;;;;;22.00;10.98;;;;;;;;;;5119219;28;20087;-73
2022/10/13 06:10:03;;;;;;;22.02;10.60;;;;;;;;;;5133582;28;20102;-74
2022/10/13 06:12:49;;;;;;;21.15;11.20;;;;;;;;;;5133165;28;20019;-73
2022/10/13 06:15:34;;;;;;;23.27;11.05;;;;;;;;;;5119090;28;20123;-74
2022/10/13 06:18:20;;;;;;;18.45;9.38;;;;;;;;;;5133103;28;20106;-74
2022/10/13 06:21:05;;;;;;;16.45;9.52;;;;;;;;;;5118096;28;20027;-74
2022/10/13 06:23:51;;;;;;;25.92;10.95;;;;;;;;;;5133841;28;20011;-74
2022/10/13 06:26:36;;;;;;;22.38;10.68;;;;;;;;;;5119471;28;20019;-75
2022/10/13 06:29:22;;;;;;;18.75;10.27;;;;;;;;;;5133683;28;20023;-74
2022/10/13 06:32:08;;;;;;;17.40;9.68;;;;;;;;;;5133123;28;20016;-74
2022/10/13 06:34:53;;;;;;;20.23;10.43;;;;;;;;;;5133447;28;20027;-74
2022/10/13 06:37:39;;;;;;;16.73;9.90;;;;;;;;;;5133290;28;20201;-74
2022/10/13 06:40:24;;;;;;;17.65;10.00;;;;;;;;;;5133681;28;20015;-74
2022/10/13 06:43:10;;;;;;;36.08;19.00;;;;;;;;;;5133866;27;20325;-73
2022/10/13 06:45:59;;;;;;;35.38;14.05;;;;;;;;;;5136803;27;20022;-73
2022/10/13 06:48:47;;;;;;;25.08;10.65;;;;;;;;;;5136526;27;20012;-74
2022/10/13 06:51:33;;;;;;;20.33;10.13;;;;;;;;;;5137617;27;20030;-74
2022/10/13 06:54:18;;;;;;;16.48;10.52;;;;;;;;;;5136376;27;20429;-74
2022/10/13 06:57:05;;;;;;;27.23;11.70;;;;;;;;;;5122488;27;20367;-74
2022/10/13 06:59:51;;;;;;;21.00;12.30;;;;;;;;;;5137409;27;20015;-74
2022/10/13 07:02:37;;;;;;;22.20;11.18;;;;;;;;;;5137689;27;20015;-76
2022/10/13 07:05:23;;;;;;;25.38;12.38;;;;;;;;;;5136794;27;20047;-74
2022/10/13 07:08:08;;;;;;;30.63;17.70;;;;;;;;;;5136516;27;20096;-74
2022/10/13 07:10:54;;;;;;;32.33;18.10;;;;;;;;;;5136904;27;20435;-74
2022/10/13 07:13:41;;;;;;;30.42;16.20;;;;;;;;;;5136739;27;20035;-74
2022/10/13 07:16:26;;;;;;;25.75;13.77;;;;;;;;;;5136506;27;20047;-74
2022/10/13 07:19:12;;;;;;;26.80;13.02;;;;;;;;;;5136472;27;20019;-74
2022/10/13 07:21:57;;;;;;;20.65;12.13;;;;;;;;;;5136552;27;20106;-75
2022/10/13 07:24:43;;;;;;;22.63;12.75;;;;;;;;;;5136449;27;20031;-75
2022/10/13 07:27:29;;;;;;;26.95;11.18;;;;;;;;;;5137091;27;20055;-74
2022/10/13 07:30:14;;;;;;;23.15;10.85;;;;;;;;;;5121850;27;20026;-74
2022/10/13 07:33:00;;;;;;;20.90;10.98;;;;;;;;;;5135847;27;20110;-75
2022/10/13 07:35:45;;;;;;;20.15;9.68;;;;;;;;;;5135754;27;20019;-74
2022/10/13 07:38:31;;;;;;;23.10;9.52;;;;;;;;;;5121796;27;20027;-74
2022/10/13 07:41:17;;;;;;;15.65;8.88;;;;;;;;;;5135260;27;20015;-74
2022/10/13 07:44:02;;;;;;;15.95;8.13;;;;;;;;;;5135620;27;20110;-75
2022/10/13 07:46:48;;;;;;;19.55;8.88;;;;;;;;;;5134307;27;20019;-73
2022/10/13 07:49:34;;;;;;;17.67;8.38;;;;;;;;;;5135486;27;20033;-74
2022/10/13 07:52:19;;;;;;;22.13;8.10;;;;;;;;;;5135192;27;20453;-74
2022/10/13 07:55:05;;;;;;;18.10;7.70;;;;;;;;;;5120099;27;20070;-74
2022/10/13 07:57:51;;;;;;;23.25;8.27;;;;;;;;;;5135953;27;20098;-75
2022/10/13 08:00:36;;;;;;;20.50;8.45;;;;;;;;;;5135939;27;20015;-74
2022/10/13 08:03:22;;;;;;;25.55;8.38;;;;;;;;;;5135080;27;20068;-74
2022/10/13 08:06:08;;;;;;;18.38;7.68;;;;;;;;;;5135978;27;20030;-74
2022/10/13 08:08:53;;;;;;;38.08;10.00;;;;;;;;;;5120611;27;20439;-75
2022/10/13 08:11:39;;;;;;;15.38;7.50;;;;;;;;;;5135690;27;20051;-75
2022/10/13 08:14:25;;;;;;;17.45;7.53;;;;;;;;;;5121152;27;20065;-75
2022/10/13 08:17:10;;;;;;;15.77;7.40;;;;;;;;;;5135184;27;20027;-75
2022/10/13 08:19:56;;;;;;;16.42;7.82;;;;;;;;;;5134680;27;20054;-75
2022/10/13 08:22:41;;;;;;;14.13;6.07;;;;;;;;;;5135612;27;20067;-75
2022/10/13 08:25:27;;;;;;;15.65;6.60;;;;;;;;;;5135280;27;20026;-75
2022/10/13 08:28:23;;;;;;;16.85;7.25;;;;;;;;;;5134011;27;20449;-75
2022/10/13 08:31:08;;;;;;;13.82;7.75;;;;;;;;;;5136181;27;20023;-74
2022/10/13 08:33:54;;;;;;;25.05;7.85;;;;;;;;;;5135398;27;20029;-75
2022/10/13 08:36:39;;;;;;;10.43;5.93;;;;;;;;;;5134852;27;20031;-74
2022/10/13 08:39:25;;;;;;;14.25;6.07;;;;;;;;;;5135213;27;20040;-75
2022/10/13 08:42:18;;;;;;;13.95;6.07;;;;;;;;;;5136910;27;20020;-74
2022/10/13 08:45:04;;;;;;;12.98;4.60;;;;;;;;;;5134372;27;20027;-74
2022/10/13 08:47:52;;;;;;;11.73;4.80;;;;;;;;;;5135488;27;20027;-74
2022/10/13 08:50:39;;;;;;;14.88;5.20;;;;;;;;;;5135438;27;20022;-74
2022/10/13 08:53:33;;;;;;;13.35;4.70;;;;;;;;;;5135170;27;20100;-73
2022/10/13 08:56:27;;;;;;;9.80;4.60;;;;;;;;;;5120299;27;20096;-74
2022/10/13 08:59:15;;;;;;;10.43;4.53;;;;;;;;;;5119947;27;20015;-75
2022/10/13 09:02:04;;;;;;;11.40;5.05;;;;;;;;;;5120536;27;20031;-74
2022/10/13 09:04:51;;;;;;;8.13;4.63;;;;;;;;;;5133545;27;20511;-74
2022/10/13 09:07:38;;;;;;;11.43;4.90;;;;;;;;;;5134767;27;20395;-74
2022/10/13 09:10:23;;;;;;;7.93;4.30;;;;;;;;;;5133733;27;20412;-74
2022/10/13 09:13:09;;;;;;;7.70;4.40;;;;;;;;;;5133937;27;20102;-74
2022/10/13 09:15:56;;;;;;;7.70;4.13;;;;;;;;;;5134955;27;20038;-74
2022/10/13 09:18:42;;;;;;;8.40;4.30;;;;;;;;;;5134819;27;20023;-74
2022/10/13 09:21:29;;;;;;;9.88;4.40;;;;;;;;;;5134905;27;20015;-73
2022/10/13 09:24:16;;;;;;;9.35;4.30;;;;;;;;;;5134730;27;20083;-73
2022/10/13 09:27:12;;;;;;;6.97;4.10;;;;;;;;;;5119250;27;20058;-75
2022/10/13 09:30:16;;;;;;;6.93;4.35;;;;;;;;;;5119843;28;20015;-73
2022/10/13 09:33:06;;;;;;;8.23;4.25;;;;;;;;;;5134522;27;20451;-74
2022/10/13 09:35:57;;;;;;;6.47;4.25;;;;;;;;;;5119675;28;20023;-73
2022/10/13 09:39:02;;;;;;;14.57;7.00;;;;;;;;;;5119490;28;20370;-73
2022/10/13 09:41:48;;;;;;;7.10;4.53;;;;;;;;;;5133339;28;20054;-73
2022/10/13 09:44:34;;;;;;;10.93;4.95;;;;;;;;;;5133731;28;20114;-73
2022/10/13 09:47:24;;;;;;;10.88;4.60;;;;;;;;;;5133306;28;20022;-72
2022/10/13 09:50:16;;;;;;;11.00;4.30;;;;;;;;;;5133982;28;20019;-73
2022/10/13 09:53:10;;;;;;;9.63;4.35;;;;;;;;;;5134035;28;20061;-73
2022/10/13 09:56:08;;;;;;;8.07;4.10;;;;;;;;;;5133827;28;20096;-73
2022/10/13 09:59:06;;;;;;;8.55;3.80;;;;;;;;;;5134231;28;20034;-73
2022/10/13 10:01:51;;;;;;;8.00;3.85;;;;;;;;;;5134008;28;20304;-73
2022/10/13 10:04:37;;;;;;;8.80;3.80;;;;;;;;;;5132783;28;20113;-72
2022/10/13 10:07:26;;;;;;;9.40;4.28;;;;;;;;;;5118116;28;20098;-73
2022/10/13 10:10:22;;;;;;;5.53;3.80;;;;;;;;;;5133643;28;20015;-73
2022/10/13 10:13:09;;;;;;;11.68;3.90;;;;;;;;;;5133342;28;20042;-73
2022/10/13 10:16:00;;;;;;;12.80;2.63;;;;;;;;;;5133690;28;20023;-73
2022/10/13 10:18:46;;;;;;;4.25;2.63;;;;;;;;;;5133754;27;20404;-72
2022/10/13 10:21:38;;;;;;;7.85;3.03;;;;;;;;;;5123416;27;20023;-72
2022/10/13 10:24:35;;;;;;;7.95;3.25;;;;;;;;;;5123206;27;20027;-73
2022/10/13 10:27:25;;;;;;;5.80;2.90;;;;;;;;;;5122674;27;20016;-72
2022/10/13 10:30:18;;;;;;;5.18;2.75;;;;;;;;;;5123148;27;20030;-73
2022/10/13 10:33:03;;;;;;;6.40;3.40;;;;;;;;;;5137646;27;20071;-73
2022/10/13 10:36:05;;;;;;;5.78;3.10;;;;;;;;;;5122654;27;20019;-72
2022/10/13 10:38:58;;;;;;;11.95;3.70;;;;;;;;;;5136682;27;20050;-72
2022/10/13 10:41:44;;;;;;;9.57;3.60;;;;;;;;;;5122455;27;20060;-72
2022/10/13 10:44:38;;;;;;;9.25;2.75;;;;;;;;;;5137352;27;20370;-72
2022/10/13 10:47:26;;;;;;;10.50;3.20;;;;;;;;;;5136502;27;20056;-72
2022/10/13 10:50:14;;;;;;;6.03;2.85;;;;;;;;;;5137303;27;20019;-73
2022/10/13 10:53:02;;;;;;;3.92;2.60;;;;;;;;;;5122653;27;20038;-73
2022/10/13 10:55:51;;;;;;;4.07;2.42;;;;;;;;;;5136930;27;20039;-73
2022/10/13 10:58:46;;;;;;;9.05;5.95;;;;;;;;;;5136871;27;20023;-72
2022/10/13 11:01:32;;;;;;;5.97;2.58;;;;;;;;;;5137242;27;20033;-72
2022/10/13 11:04:34;;;;;;;4.65;3.00;;;;;;;;;;5137139;27;20019;-74
2022/10/13 11:07:22;;;;;;;5.53;2.20;;;;;;;;;;5136949;27;20080;-73
2022/10/13 11:10:17;;;;;;;2.50;1.60;;;;;;;;;;5136921;27;20046;-73
2022/10/13 11:13:06;;;;;;;3.58;1.73;;;;;;;;;;5136222;27;20058;-72
2022/10/13 11:15:52;;;;;;;5.93;2.17;;;;;;;;;;5136959;27;20090;-72
2022/10/13 11:19:04;;;;;;;3.05;1.85;;;;;;;;;;5136980;27;20068;-73
2022/10/13 11:21:56;;;;;;;5.25;2.50;;;;;;;;;;5121752;27;20022;-73
2022/10/13 11:24:47;;;;;;;8.98;1.77;;;;;;;;;;5121416;27;20026;-72
2022/10/13 11:27:35;;;;;;;3.42;1.80;;;;;;;;;;5135784;27;20027;-72
2022/10/13 11:30:41;;;;;;;2.58;1.75;;;;;;;;;;5135137;27;20126;-72
2022/10/13 11:33:33;;;;;;;5.80;1.52;;;;;;;;;;5121843;27;20019;-74
2022/10/13 11:36:38;;;;;;;2.63;1.60;;;;;;;;;;5121798;27;20443;-73
2022/10/13 11:39:25;;;;;;;2.60;1.60;;;;;;;;;;5136525;27;20439;-72
2022/10/13 11:42:11;;;;;;;2.50;1.60;;;;;;;;;;5136067;27;20024;-73
2022/10/13 11:44:57;;;;;;;2.70;1.73;;;;;;;;;;5135727;27;20482;-73
2022/10/13 11:47:52;;;;;;;3.15;1.58;;;;;;;;;;5121389;27;20023;-73
2022/10/13 11:50:41;;;;;;;4.45;1.60;;;;;;;;;;5136552;27;20023;-72
2022/10/13 11:53:30;;;;;;;6.82;2.10;;;;;;;;;;5134845;27;20420;-73
2022/10/13 11:56:30;;;;;;;2.42;1.60;;;;;;;;;;5134912;27;20043;-73
2022/10/13 11:59:27;;;;;;;2.38;1.55;;;;;;;;;;5134983;27;20377;-73
2022/10/13 12:02:17;;;;;;;2.15;1.33;;;;;;;;;;5135415;27;20030;-73
2022/10/13 12:05:20;;;;;;;2.42;1.48;;;;;;;;;;5120988;27;20486;-72
2022/10/13 12:08:05;;;;;;;2.92;1.50;;;;;;;;;;5135274;27;20404;-73
2022/10/13 12:10:54;;;;;;;5.85;1.45;;;;;;;;;;5135964;27;20029;-72
2022/10/13 12:13:45;;;;;;;3.00;1.77;;;;;;;;;;5134052;27;20429;-73
2022/10/13 12:16:30;;;;;;;2.88;1.50;;;;;;;;;;5134820;27;20019;-73
2022/10/13 12:19:20;;;;;;;7.57;2.60;;;;;;;;;;5135621;27;20019;-72
2022/10/13 12:22:10;;;;;;;2.58;1.38;;;;;;;;;;5135141;27;20019;-72
2022/10/13 12:24:57;;;;;;;2.47;1.20;;;;;;;;;;5134258;27;20023;-72
2022/10/13 12:27:47;;;;;;;3.83;1.42;;;;;;;;;;5134052;27;20431;-72
2022/10/13 12:30:36;;;;;;;1.95;1.40;;;;;;;;;;5120681;27;20035;-71
2022/10/13 12:33:26;;;;;;;4.90;1.48;;;;;;;;;;5120002;27;20107;-71
2022/10/13 12:36:16;;;;;;;2.67;1.50;;;;;;;;;;5135395;27;20411;-72
2022/10/13 12:39:03;;;;;;;4.68;1.70;;;;;;;;;;5120449;27;20106;-71
2022/10/13 12:41:49;;;;;;;13.77;11.32;;;;;;;;;;5134255;27;20102;-71
2022/10/13 12:44:35;;;;;;;8.00;1.73;;;;;;;;;;5134163;27;20015;-71
2022/10/13 12:47:40;;;;;;;4.47;1.80;;;;;;;;;;5106649;27;20008;-71
2022/10/13 12:50:28;;;;;;;2.58;1.48;;;;;;;;;;5134992;27;20023;-72
2022/10/13 12:53:19;;;;;;;3.35;1.42;;;;;;;;;;5120157;27;20384;-72
2022/10/13 12:56:05;;;;;;;3.53;1.45;;;;;;;;;;5094352;28;20048;-71
2022/10/13 12:58:50;;;;;;;3.10;1.42;;;;;;;;;;5094041;28;20020;-71
2022/10/13 13:01:36;;;;;;;1.92;1.52;;;;;;;;;;5095087;28;20011;-71
2022/10/13 13:04:22;;;;;;;2.55;1.50;;;;;;;;;;5092699;28;20443;-71
2022/10/13 13:07:27;;;;;;;4.72;1.60;;;;;;;;;;5092850;28;20101;-71
2022/10/13 13:10:14;;;;;;;3.95;1.90;;;;;;;;;;5093082;28;20028;-72
2022/10/13 13:13:13;;;;;;;4.07;1.63;;;;;;;;;;5094049;28;20042;-71
2022/10/13 13:16:15;;;;;;;1.48;1.27;;;;;;;;;;5094343;28;20042;-71
2022/10/13 13:19:01;;;;;;;2.08;1.40;;;;;;;;;;5093926;28;20024;-72
2022/10/13 13:21:46;;;;;;;2.85;1.15;;;;;;;;;;5093962;28;20015;-72
2022/10/13 13:24:32;;;;;;;1.65;1.10;;;;;;;;;;5093061;28;20008;-72
2022/10/13 13:27:32;;;;;;;1.45;1.02;;;;;;;;;;5093935;28;20024;-73
2022/10/13 13:30:23;;;;;;;5.20;1.42;;;;;;;;;;5079722;28;20086;-71
2022/10/13 13:33:08;;;;;;;3.63;1.48;;;;;;;;;;5092568;28;20024;-71
2022/10/13 13:35:54;;;;;;;2.22;1.45;;;;;;;;;;5093973;28;20405;-72
2022/10/13 13:38:39;;;;;;;2.95;1.15;;;;;;;;;;5093599;28;20024;-73
2022/10/13 13:41:26;;;;;;;2.15;1.02;;;;;;;;;;5094664;28;20016;-73
2022/10/13 13:44:12;;;;;;;2.58;1.20;;;;;;;;;;5093592;28;20024;-73
2022/10/13 13:46:58;;;;;;;2.25;1.45;;;;;;;;;;5094061;28;20309;-73
2022/10/13 13:49:43;;;;;;;4.07;1.30;;;;;;;;;;5094081;28;20528;-73
2022/10/13 13:52:29;;;;;;;3.08;1.23;;;;;;;;;;5093784;28;20039;-74
2022/10/13 13:55:15;;;;;;;1.90;1.30;;;;;;;;;;5108483;28;20143;-73
2022/10/13 13:58:00;;;;;;;3.30;1.38;;;;;;;;;;5118807;28;20511;-73
2022/10/13 14:00:46;;;;;;;3.97;1.52;;;;;;;;;;5119353;28;20027;-74
2022/10/13 14:03:31;;;;;;;5.78;2.17;;;;;;;;;;5117650;28;20022;-73
2022/10/13 14:06:18;;;;;;;3.10;1.95;;;;;;;;;;5118015;28;20034;-73
2022/10/13 14:09:04;;;;;;;7.47;2.90;;;;;;;;;;5119641;27;20032;-73
2022/10/13 14:11:49;;;;;;;6.25;3.55;;;;;;;;;;5118102;28;20043;-74
2022/10/13 14:14:35;;;;;;;6.18;3.10;;;;;;;;;;5118476;28;20063;-73
2022/10/13 14:17:21;;;;;;;6.45;3.05;;;;;;;;;;5117866;28;20024;-73
2022/10/13 14:20:06;;;;;;;7.22;3.38;;;;;;;;;;5118708;28;20020;-73
2022/10/13 14:22:52;;;;;;;6.03;3.25;;;;;;;;;;5103440;28;20077;-75
2022/10/13 14:25:38;;;;;;;9.52;2.97;;;;;;;;;;5118478;28;20038;-73
2022/10/13 14:28:23;;;;;;;6.40;3.10;;;;;;;;;;5118143;28;20051;-74
2022/10/13 14:31:10;;;;;;;10.52;3.30;;;;;;;;;;5118713;28;20412;-74
2022/10/13 14:33:55;;;;;;;8.95;3.50;;;;;;;;;;5117986;28;20055;-74
2022/10/13 14:36:41;;;;;;;4.55;3.05;;;;;;;;;;5117813;28;20104;-74
2022/10/13 14:39:26;;;;;;;5.70;2.90;;;;;;;;;;5116823;28;20019;-73
2022/10/13 14:42:12;;;;;;;7.95;3.03;;;;;;;;;;5118316;28;20026;-70
2022/10/13 14:44:57;;;;;;;8.45;3.35;;;;;;;;;;5116993;28;20397;-73
2022/10/13 14:47:43;;;;;;;5.93;2.60;;;;;;;;;;5116947;28;20439;-73
2022/10/13 14:50:32;;;;;;;9.55;2.70;;;;;;;;;;5118705;27;20440;-72
2022/10/13 14:53:18;;;;;;;4.25;2.72;;;;;;;;;;5117475;28;20459;-72
2022/10/13 14:56:13;;;;;;;11.57;3.15;;;;;;;;;;5117895;28;20384;-73
2022/10/13 14:59:00;;;;;;;7.75;3.10;;;;;;;;;;5101416;28;20157;-70
2022/10/13 15:01:47;;;;;;;6.35;2.78;;;;;;;;;;5116841;28;20057;-72
2022/10/13 15:04:32;;;;;;;10.32;3.20;;;;;;;;;;5101228;28;20043;-73
2022/10/13 15:07:18;;;;;;;4.35;2.97;;;;;;;;;;5117163;28;20315;-74
2022/10/13 15:10:04;;;;;;;10.63;3.22;;;;;;;;;;5118052;28;20016;-73
2022/10/13 15:12:49;;;;;;;6.40;2.70;;;;;;;;;;5117753;28;20020;-72
2022/10/13 15:15:35;;;;;;;9.00;3.05;;;;;;;;;;5116997;28;20364;-74
2022/10/13 15:18:21;;;;;;;8.57;2.90;;;;;;;;;;5103310;28;20020;-74
2022/10/13 15:21:06;;;;;;;8.57;3.40;;;;;;;;;;5118316;28;20031;-73
2022/10/13 15:23:52;;;;;;;8.75;3.38;;;;;;;;;;5117265;28;20025;-72
2022/10/13 15:26:37;;;;;;;14.70;4.20;;;;;;;;;;5116172;28;20362;-71
2022/10/13 15:29:23;;;;;;;9.65;3.40;;;;;;;;;;5120423;27;20458;-72
2022/10/13 15:32:10;;;;;;;8.30;3.83;;;;;;;;;;5117748;28;20030;-73
2022/10/13 15:34:56;;;;;;;10.77;4.20;;;;;;;;;;5115073;28;20031;-73
2022/10/13 15:37:41;;;;;;;27.73;14.43;;;;;;;;;;5116174;28;20082;-72
2022/10/13 15:40:27;;;;;;;16.83;7.65;;;;;;;;;;5116870;28;20016;-73
2022/10/13 15:43:13;;;;;;;11.27;4.80;;;;;;;;;;5102530;28;20349;-73
2022/10/13 15:46:00;;;;;;;11.13;4.85;;;;;;;;;;5117500;28;20454;-73
2022/10/13 15:48:47;;;;;;;15.05;4.60;;;;;;;;;;5116853;28;20035;-72
2022/10/13 15:51:32;;;;;;;9.57;4.30;;;;;;;;;;5100789;28;20072;-72
2022/10/13 15:54:19;;;;;;;13.23;4.88;;;;;;;;;;5116587;28;20468;-73
2022/10/13 15:57:05;;;;;;;12.32;4.63;;;;;;;;;;5100199;28;20028;-73
2022/10/13 15:59:50;;;;;;;15.60;4.65;;;;;;;;;;5115857;28;20058;-72
2022/10/13 16:02:36;;;;;;;14.13;5.07;;;;;;;;;;5117093;28;20402;-74
2022/10/13 16:05:21;;;;;;;15.98;5.60;;;;;;;;;;5115920;28;20008;-73
2022/10/13 16:08:07;;;;;;;18.77;6.55;;;;;;;;;;5115749;28;20016;-72
2022/10/13 16:10:53;;;;;;;22.83;10.48;;;;;;;;;;5117033;28;20436;-71
2022/10/13 16:13:39;;;;;;;14.45;7.05;;;;;;;;;;5116151;28;20364;-71
2022/10/13 16:16:26;;;;;;;39.20;9.25;;;;;;;;;;5115209;28;20139;-71
2022/10/13 16:19:12;;;;;;;14.15;6.22;;;;;;;;;;5116607;28;20019;-71
2022/10/13 16:21:57;;;;;;;17.17;6.80;;;;;;;;;;5116289;28;20019;-70
2022/10/13 16:24:43;;;;;;;19.63;7.60;;;;;;;;;;5116111;28;20356;-70
2022/10/13 16:27:29;;;;;;;15.48;6.53;;;;;;;;;;5115682;28;20034;-70
2022/10/13 16:30:14;;;;;;;20.67;6.47;;;;;;;;;;5102697;27;20110;-72
2022/10/13 16:33:00;;;;;;;16.40;6.35;;;;;;;;;;5115427;28;20026;-73